Time;durP1;ratioP1;P1;durP2;ratioP2;P2;SDS_P1;SDS_P2;PMS_P1;PMS_P2;Temp;Humidity;BMP_temperature;BMP_pressure;BME280_temperature;BME280_humidity;BME280_pressure;Samples;Min_cycle;Max_cycle;Signal;HPM_P1;HPM_P2
2022/10/03 00:01:59;;;;;;;7.80;2.50;;;9.20;99.90;;;;;;4205924;28;20560;-78
2022/10/03 00:04:21;;;;;;;10.73;2.50;;;9.30;99.90;;;;;;4179542;28;20515;-80
2022/10/03 00:06:34;;;;;;;10.20;2.67;;;9.30;99.90;;;;;;4219356;28;20479;-81
2022/10/03 00:08:57;;;;;;;8.50;2.80;;;9.30;99.90;;;;;;4205999;28;20470;-79
2022/10/03 00:11:07;;;;;;;9.07;3.10;;;9.30;99.90;;;;;;4206167;28;20557;-78
2022/10/03 00:13:35;;;;;;;7.17;2.60;;;9.30;99.90;;;;;;4199030;28;20522;-79
2022/10/03 00:16:02;;;;;;;;;;;;;;;;;;;;;
2022/10/03 00:18:28;;;;;;;;;;;;;;;;;;;;;
2022/10/03 00:21:08;;;;;;;10.23;2.63;;;9.30;99.90;;;;;;4221552;28;20231;-78
2022/10/03 00:23:21;;;;;;;13.67;3.17;;;9.30;99.90;;;;;;4223552;28;20833;-78
2022/10/03 00:25:54;;;;;;;12.90;2.77;;;9.20;99.90;;;;;;4211045;28;20469;-79
2022/10/03 00:28:09;;;;;;;6.57;3.00;;;9.20;99.90;;;;;;4206088;28;20528;-78
2022/10/03 00:30:17;;;;;;;6.73;2.60;;;9.30;99.90;;;;;;4221299;28;20446;-79
2022/10/03 00:32:29;;;;;;;12.67;3.13;;;9.20;99.90;;;;;;4229399;28;20466;-79
2022/10/03 00:34:46;;;;;;;8.17;3.13;;;9.20;99.90;;;;;;4230881;28;20537;-79
2022/10/03 00:36:59;;;;;;;14.50;3.27;;;9.20;99.90;;;;;;4227407;28;21054;-82
2022/10/03 00:39:20;;;;;;;7.27;2.80;;;9.30;99.90;;;;;;4231895;28;20549;-78
2022/10/03 00:41:38;;;;;;;9.20;2.67;;;9.20;99.90;;;;;;4225553;28;20454;-82
2022/10/03 00:44:11;;;;;;;8.33;3.07;;;9.30;99.90;;;;;;4224790;28;20456;-78
2022/10/03 00:46:58;;;;;;;13.33;3.00;;;9.20;99.90;;;;;;4201225;28;20969;-78
2022/10/03 00:49:56;;;;;;;10.27;3.10;;;9.20;99.90;;;;;;4182098;28;20879;-79
2022/10/03 00:52:18;;;;;;;8.00;2.77;;;9.20;99.90;;;;;;4159636;28;20942;-78
2022/10/03 00:54:39;;;;;;;14.23;3.40;;;9.20;99.90;;;;;;4208641;28;20489;-79
2022/10/03 00:57:06;;;;;;;13.87;3.33;;;9.20;99.90;;;;;;4202521;28;20681;-82
2022/10/03 00:59:30;;;;;;;17.97;3.50;;;9.20;99.90;;;;;;4214002;28;20475;-78
2022/10/03 01:01:38;;;;;;;22.80;3.33;;;9.20;99.90;;;;;;4229709;28;20499;-78
2022/10/03 01:03:46;;;;;;;9.93;2.87;;;9.20;99.90;;;;;;4232633;28;20437;-83
2022/10/03 01:06:00;;;;;;;9.43;3.00;;;9.10;99.90;;;;;;4209037;28;20466;-78
2022/10/03 01:08:37;;;;;;;17.17;3.70;;;9.20;99.90;;;;;;4208527;28;20571;-79
2022/10/03 01:10:52;;;;;;;8.10;2.90;;;9.20;99.90;;;;;;4188927;28;20457;-79
2022/10/03 01:13:06;;;;;;;11.30;3.07;;;9.30;99.90;;;;;;4202288;28;20513;-79
2022/10/03 01:15:21;;;;;;;9.13;2.70;;;9.20;99.90;;;;;;4211759;28;20250;-79
2022/10/03 01:17:35;;;;;;;16.27;3.60;;;9.20;99.90;;;;;;4224952;28;21263;-83
2022/10/03 01:20:09;;;;;;;8.53;2.77;;;9.20;99.90;;;;;;4224125;28;20832;-78
2022/10/03 01:22:31;;;;;;;8.77;3.30;;;9.20;99.90;;;;;;4210725;28;20451;-78
2022/10/03 01:24:54;;;;;;;10.57;3.47;;;9.20;99.90;;;;;;4210903;28;20584;-78
2022/10/03 01:27:00;;;;;;;8.50;3.07;;;9.20;99.90;;;;;;4216369;28;20451;-81
2022/10/03 01:31:34;;;;;;;11.73;3.03;;;9.20;99.90;;;;;;4223455;28;20455;-79
2022/10/03 01:33:42;;;;;;;9.87;3.27;;;9.20;99.90;;;;;;4204552;28;20232;-78
2022/10/03 01:35:53;;;;;;;14.43;3.23;;;9.20;99.90;;;;;;4232328;28;20446;-78
2022/10/03 01:38:05;;;;;;;9.57;2.97;;;9.20;99.90;;;;;;4204805;28;20229;-79
2022/10/03 01:40:17;;;;;;;14.63;3.53;;;9.30;99.90;;;;;;4207040;28;20698;-78
2022/10/03 01:42:33;;;;;;;8.17;3.07;;;9.20;99.90;;;;;;4207618;28;20307;-82
2022/10/03 01:44:52;;;;;;;10.07;2.50;;;9.30;99.90;;;;;;4198906;28;20212;-81
2022/10/03 01:47:05;;;;;;;12.20;3.03;;;9.20;99.90;;;;;;4227787;28;20794;-78
2022/10/03 01:49:16;;;;;;;8.53;3.13;;;9.20;99.90;;;;;;4222283;28;20231;-78
2022/10/03 01:51:24;;;;;;;12.60;3.30;;;9.20;99.90;;;;;;4226330;28;20541;-80
2022/10/03 01:53:36;;;;;;;8.40;2.83;;;9.10;99.90;;;;;;4220386;28;20206;-78
2022/10/03 01:55:49;;;;;;;11.07;3.10;;;9.10;99.90;;;;;;4229741;28;20812;-78
2022/10/03 01:57:59;;;;;;;9.57;2.80;;;9.30;99.90;;;;;;4213639;28;21125;-78
2022/10/03 02:00:09;;;;;;;16.37;3.33;;;9.10;99.90;;;;;;4226277;28;20450;-78
2022/10/03 02:02:17;;;;;;;10.47;2.90;;;9.20;99.90;;;;;;4201830;28;20938;-80
2022/10/03 02:04:37;;;;;;;10.10;3.37;;;9.20;99.90;;;;;;4209016;28;20988;-78
2022/10/03 02:06:47;;;;;;;9.70;2.73;;;9.20;99.90;;;;;;4226707;28;20485;-82
2022/10/03 02:08:58;;;;;;;7.60;2.80;;;9.60;99.90;;;;;;4208536;28;20482;-80
2022/10/03 02:11:03;;;;;;;12.50;3.17;;;9.20;99.90;;;;;;4229991;28;20948;-79
2022/10/03 02:13:12;;;;;;;11.73;2.83;;;9.40;99.90;;;;;;4226158;28;20212;-80
2022/10/03 02:15:21;;;;;;;13.20;2.93;;;9.20;99.90;;;;;;4234352;28;20207;-79
2022/10/03 02:17:29;;;;;;;8.23;2.73;;;9.20;99.90;;;;;;4224399;28;20478;-79
2022/10/03 02:19:41;;;;;;;6.57;2.77;;;9.30;99.90;;;;;;4239191;28;20200;-81
2022/10/03 02:21:48;;;;;;;6.57;2.73;;;9.30;99.90;;;;;;4216314;28;20549;-77
2022/10/03 02:24:11;;;;;;;11.37;2.83;;;9.30;99.90;;;;;;4211984;28;20239;-78
2022/10/03 02:26:57;;;;;;;10.43;2.90;;;9.30;99.90;;;;;;4201000;28;20304;-78
2022/10/03 02:29:29;;;;;;;9.67;2.70;;;9.30;99.90;;;;;;4216115;28;20252;-79
2022/10/03 02:32:04;;;;;;;14.43;2.90;;;9.40;99.90;;;;;;4199908;28;20237;-78
2022/10/03 02:34:34;;;;;;;9.40;2.63;;;9.40;99.90;;;;;;4215812;28;20251;-79
2022/10/03 02:37:19;;;;;;;12.13;3.00;;;9.30;99.90;;;;;;4195388;28;20573;-82
2022/10/03 02:39:55;;;;;;;9.57;2.60;;;9.40;99.90;;;;;;4217331;28;20264;-78
2022/10/03 02:42:31;;;;;;;8.73;2.60;;;9.40;99.90;;;;;;4213020;28;20443;-79
2022/10/03 02:45:06;;;;;;;5.37;2.27;;;9.40;99.90;;;;;;4178437;28;20675;-79
2022/10/03 02:47:41;;;;;;;9.50;2.97;;;9.40;99.90;;;;;;4217364;28;20723;-80
2022/10/03 02:50:09;;;;;;;10.53;2.70;;;9.40;99.90;;;;;;4197220;28;21061;-78
2022/10/03 02:52:27;;;;;;;14.17;3.07;;;9.40;99.90;;;;;;4211861;28;20216;-80
2022/10/03 02:55:10;;;;;;;11.67;3.00;;;9.40;99.90;;;;;;4218151;28;20205;-78
2022/10/03 02:57:41;;;;;;;12.30;2.73;;;9.40;99.90;;;;;;4200485;28;20789;-78
2022/10/03 03:00:12;;;;;;;10.90;2.87;;;9.40;99.90;;;;;;4220750;28;20204;-80
2022/10/03 03:02:53;;;;;;;13.17;3.00;;;9.50;99.90;;;;;;4171519;28;20224;-78
2022/10/03 03:05:23;;;;;;;12.80;2.60;;;9.50;99.90;;;;;;4220769;28;20209;-79
2022/10/03 03:07:51;;;;;;;10.83;2.90;;;9.50;99.90;;;;;;4224229;28;20200;-78
2022/10/03 03:10:27;;;;;;;16.13;3.07;;;9.50;99.90;;;;;;4215413;28;20240;-79
2022/10/03 03:12:55;;;;;;;9.40;3.17;;;9.50;99.90;;;;;;4218019;28;20207;-79
2022/10/03 03:15:40;;;;;;;7.73;2.57;;;9.50;99.90;;;;;;4184326;28;20808;-81
2022/10/03 03:17:49;;;;;;;14.57;3.20;;;9.60;99.90;;;;;;4211735;28;20229;-77
2022/10/03 03:20:09;;;;;;;10.53;2.73;;;9.50;99.90;;;;;;4216548;28;20209;-78
2022/10/03 03:22:31;;;;;;;7.70;2.67;;;9.60;99.90;;;;;;4199434;28;20210;-78
2022/10/03 03:24:55;;;;;;;13.83;2.90;;;9.60;99.90;;;;;;4211171;28;20209;-77
2022/10/03 03:27:18;;;;;;;10.50;3.00;;;9.60;99.90;;;;;;4214024;28;20210;-79
2022/10/03 03:29:31;;;;;;;6.40;2.80;;;9.60;99.90;;;;;;4215350;28;20235;-78
2022/10/03 03:31:40;;;;;;;10.93;2.67;;;9.60;99.90;;;;;;4222721;28;20284;-79
2022/10/03 03:33:58;;;;;;;10.63;3.13;;;9.70;99.90;;;;;;4213498;28;20205;-78
2022/10/03 03:36:10;;;;;;;12.80;2.83;;;9.70;99.90;;;;;;4217353;28;20206;-78
2022/10/03 03:38:24;;;;;;;12.27;3.00;;;9.70;99.90;;;;;;4199415;28;20236;-78
2022/10/03 03:40:39;;;;;;;11.63;2.83;;;9.70;99.90;;;;;;4217376;28;20295;-78
2022/10/03 03:43:10;;;;;;;11.90;2.80;;;9.70;99.90;;;;;;4222084;28;20269;-78
2022/10/03 03:45:29;;;;;;;12.37;2.60;;;9.70;99.90;;;;;;4219776;28;20602;-77
2022/10/03 03:48:21;;;;;;;20.13;2.70;;;9.70;99.90;;;;;;4216335;28;20204;-78
2022/10/03 03:50:46;;;;;;;10.50;2.67;;;9.70;99.90;;;;;;4155334;28;20219;-78
2022/10/03 03:53:09;;;;;;;17.30;3.13;;;9.70;99.90;;;;;;4207854;28;20231;-80
2022/10/03 03:55:33;;;;;;;11.83;2.80;;;9.70;99.90;;;;;;4212491;28;20241;-79
2022/10/03 03:57:58;;;;;;;6.17;2.30;;;9.70;99.90;;;;;;4220438;28;20253;-77
2022/10/03 04:00:12;;;;;;;5.07;2.13;;;9.80;99.90;;;;;;4213879;28;20201;-81
2022/10/03 04:02:26;;;;;;;13.17;3.17;;;9.80;99.90;;;;;;4223199;28;20440;-77
2022/10/03 04:04:43;;;;;;;9.63;2.80;;;9.70;99.90;;;;;;4226469;28;20204;-79
2022/10/03 04:06:56;;;;;;;16.90;2.53;;;9.70;99.90;;;;;;4197792;28;20771;-79
2022/10/03 04:09:17;;;;;;;9.50;2.80;;;9.70;99.90;;;;;;4226896;28;20228;-84
2022/10/03 04:11:30;;;;;;;9.73;2.40;;;9.70;99.90;;;;;;4210445;28;20451;-79
2022/10/03 04:14:14;;;;;;;11.23;2.53;;;9.90;99.90;;;;;;4217150;28;20201;-85
2022/10/03 04:18:59;;;;;;;8.13;2.70;;;9.70;99.90;;;;;;4194446;28;20930;-77
2022/10/03 04:21:22;;;;;;;7.77;2.63;;;9.70;99.90;;;;;;4202796;28;20217;-77
2022/10/03 04:23:41;;;;;;;8.90;2.67;;;9.70;99.90;;;;;;4220685;28;20230;-77
2022/10/03 04:25:57;;;;;;;7.87;2.83;;;9.70;99.90;;;;;;4223260;28;20204;-77
2022/10/03 04:28:25;;;;;;;11.47;3.03;;;9.70;99.90;;;;;;4197539;28;20295;-78
2022/10/03 04:30:34;;;;;;;6.43;2.47;;;9.70;99.90;;;;;;4207773;28;20209;-85
2022/10/03 04:32:56;;;;;;;9.07;2.83;;;9.70;99.90;;;;;;4209013;28;20237;-79
2022/10/03 04:35:16;;;;;;;13.60;2.97;;;9.70;99.90;;;;;;4212116;28;20228;-80
2022/10/03 04:37:24;;;;;;;12.50;2.83;;;9.80;99.90;;;;;;4201401;28;20231;-78
2022/10/03 04:39:36;;;;;;;10.87;3.10;;;9.70;99.90;;;;;;4226800;28;20224;-78
2022/10/03 04:41:49;;;;;;;7.57;2.70;;;9.80;99.90;;;;;;4227718;28;20287;-78
2022/10/03 04:44:02;;;;;;;9.47;2.63;;;10.00;99.90;;;;;;4215299;28;20242;-78
2022/10/03 04:46:26;;;;;;;13.20;3.00;;;9.70;99.90;;;;;;4205514;28;20216;-78
2022/10/03 04:48:37;;;;;;;7.73;2.83;;;9.70;99.90;;;;;;4225982;28;20814;-81
2022/10/03 04:50:42;;;;;;;5.97;2.87;;;9.70;99.90;;;;;;4203864;28;20216;-78
2022/10/03 04:52:50;;;;;;;9.13;3.17;;;9.90;99.90;;;;;;4200317;28;20333;-81
2022/10/03 04:55:03;;;;;;;8.30;3.23;;;9.60;99.90;;;;;;4227113;28;20666;-82
2022/10/03 04:57:17;;;;;;;6.80;2.80;;;9.70;99.90;;;;;;4200494;28;20569;-77
2022/10/03 04:59:45;;;;;;;6.17;2.67;;;9.70;99.90;;;;;;4227210;28;20220;-77
2022/10/03 05:01:55;;;;;;;7.83;2.87;;;9.80;99.90;;;;;;4233548;28;20204;-82
2022/10/03 05:04:06;;;;;;;8.77;2.90;;;9.80;99.90;;;;;;4222218;28;20235;-81
2022/10/03 05:06:22;;;;;;;13.60;3.33;;;9.70;99.90;;;;;;4214277;28;20209;-79
2022/10/03 05:08:38;;;;;;;9.57;3.10;;;9.70;99.90;;;;;;4222918;28;20228;-77
2022/10/03 05:10:54;;;;;;;14.60;3.40;;;9.70;99.90;;;;;;4235472;28;20209;-78
2022/10/03 05:13:07;;;;;;;20.37;3.27;;;9.70;99.90;;;;;;4212947;28;20756;-77
2022/10/03 05:15:21;;;;;;;8.50;3.13;;;9.70;99.90;;;;;;4216048;28;20674;-78
2022/10/03 05:17:33;;;;;;;9.70;3.57;;;9.70;99.90;;;;;;4222190;28;20443;-78
2022/10/03 05:20:00;;;;;;;7.90;3.03;;;9.70;99.90;;;;;;4228676;28;20388;-79
2022/10/03 05:22:09;;;;;;;13.23;3.47;;;9.70;99.90;;;;;;4231974;28;20551;-78
2022/10/03 05:24:19;;;;;;;8.20;3.20;;;9.70;99.90;;;;;;4209448;28;20222;-80
2022/10/03 05:26:27;;;;;;;13.70;3.27;;;9.70;99.90;;;;;;4211539;28;20300;-78
2022/10/03 05:28:39;;;;;;;7.57;3.23;;;9.70;99.90;;;;;;4233152;28;20270;-78
2022/10/03 05:30:52;;;;;;;14.53;3.40;;;9.70;99.90;;;;;;4213149;28;20210;-79
2022/10/03 05:33:02;;;;;;;10.67;3.30;;;9.70;99.90;;;;;;4232880;28;20208;-77
2022/10/03 05:35:21;;;;;;;12.30;3.33;;;9.70;99.90;;;;;;4228784;28;20579;-79
2022/10/03 05:37:55;;;;;;;7.97;2.90;;;9.70;99.90;;;;;;4231048;28;20265;-78
2022/10/03 05:40:01;;;;;;;16.13;3.53;;;9.70;99.90;;;;;;4216746;28;20220;-78
2022/10/03 05:42:22;;;;;;;15.17;3.47;;;9.70;99.90;;;;;;4211277;28;20214;-77
2022/10/03 05:44:40;;;;;;;6.57;3.00;;;9.80;99.90;;;;;;4206784;28;20491;-78
2022/10/03 05:46:58;;;;;;;16.13;3.50;;;9.70;99.90;;;;;;4229501;28;20663;-80
2022/10/03 05:49:18;;;;;;;14.27;3.23;;;9.80;99.90;;;;;;4214092;28;20774;-78
2022/10/03 05:51:45;;;;;;;10.90;3.30;;;9.80;99.90;;;;;;4224295;28;20270;-79
2022/10/03 05:54:16;;;;;;;12.93;3.50;;;9.80;99.90;;;;;;4224544;28;20297;-80
2022/10/03 05:56:35;;;;;;;13.77;3.20;;;9.80;99.90;;;;;;4212066;28;20218;-80
2022/10/03 05:58:56;;;;;;;14.33;3.83;;;9.80;99.90;;;;;;4226397;28;20232;-80
2022/10/03 06:01:22;;;;;;;7.97;2.70;;;9.80;99.90;;;;;;4211184;28;20348;-78
2022/10/03 06:03:48;;;;;;;13.37;3.37;;;9.80;99.90;;;;;;4223416;28;20723;-80
2022/10/03 06:06:12;;;;;;;14.83;4.27;;;9.80;99.90;;;;;;4227200;28;20247;-78
2022/10/03 06:09:03;;;;;;;17.20;3.37;;;9.90;99.90;;;;;;4223757;28;20309;-79
2022/10/03 06:11:20;;;;;;;14.27;3.30;;;9.90;99.90;;;;;;4210960;28;20213;-79
2022/10/03 06:13:38;;;;;;;14.93;3.87;;;9.90;99.90;;;;;;4210524;28;20267;-78
2022/10/03 06:15:53;;;;;;;8.20;3.57;;;9.90;99.90;;;;;;4213927;28;20239;-79
2022/10/03 06:18:26;;;;;;;14.63;3.90;;;9.90;99.90;;;;;;4221704;28;20613;-79
2022/10/03 06:21:03;;;;;;;8.37;2.93;;;10.00;99.90;;;;;;4207192;28;20379;-79
2022/10/03 06:23:27;;;;;;;11.43;3.20;;;10.00;99.90;;;;;;4184584;28;20237;-79
2022/10/03 06:26:05;;;;;;;15.27;3.80;;;10.00;99.90;;;;;;4222139;28;20205;-80
2022/10/03 06:28:50;;;;;;;7.47;3.20;;;10.00;99.90;;;;;;4192303;28;20242;-79
2022/10/03 06:31:27;;;;;;;10.10;3.50;;;10.10;99.90;;;;;;4212808;28;20292;-80
2022/10/03 06:34:11;;;;;;;11.77;3.20;;;10.10;99.90;;;;;;4224073;28;20253;-79
2022/10/03 06:36:31;;;;;;;9.90;3.50;;;10.10;99.90;;;;;;4223843;28;20582;-79
2022/10/03 06:39:07;;;;;;;9.77;3.37;;;10.20;99.90;;;;;;4212530;28;20759;-79
2022/10/03 06:41:41;;;;;;;11.60;3.50;;;10.30;99.90;;;;;;4211845;28;20233;-77
2022/10/03 06:44:05;;;;;;;12.37;3.37;;;10.30;99.90;;;;;;4210262;28;20206;-79
2022/10/03 06:46:33;;;;;;;14.07;3.27;;;10.20;99.90;;;;;;4207111;28;20213;-79
2022/10/03 06:49:19;;;;;;;14.03;3.80;;;10.30;99.90;;;;;;4227544;28;20253;-79
2022/10/03 06:52:05;;;;;;;15.60;3.40;;;10.30;99.90;;;;;;4221008;28;20244;-80
2022/10/03 06:54:31;;;;;;;22.70;4.30;;;10.40;99.90;;;;;;4182699;28;20214;-80
2022/10/03 06:57:08;;;;;;;15.63;4.10;;;10.40;99.90;;;;;;4194518;28;20726;-79
2022/10/03 06:59:39;;;;;;;13.57;3.80;;;10.40;99.90;;;;;;4221307;28;20216;-79
2022/10/03 07:02:07;;;;;;;15.57;3.97;;;10.50;99.90;;;;;;4199943;28;20226;-80
2022/10/03 07:04:33;;;;;;;13.63;3.70;;;10.60;99.90;;;;;;4206753;28;20215;-80
2022/10/03 07:06:53;;;;;;;16.17;4.10;;;10.60;99.90;;;;;;4228447;28;20289;-81
2022/10/03 07:09:33;;;;;;;11.20;3.57;;;10.60;99.90;;;;;;4228826;28;20218;-78
2022/10/03 07:12:05;;;;;;;13.93;3.50;;;10.60;99.90;;;;;;4221941;28;20209;-79
2022/10/03 07:14:35;;;;;;;10.77;3.40;;;10.70;99.90;;;;;;4223239;28;20246;-79
2022/10/03 07:17:07;;;;;;;20.20;4.20;;;10.70;99.90;;;;;;4211202;28;20237;-78
2022/10/03 07:19:57;;;;;;;12.77;3.40;;;10.70;99.90;;;;;;4220977;28;20214;-78
2022/10/03 07:22:46;;;;;;;20.53;4.40;;;10.80;99.90;;;;;;4218256;28;20244;-80
2022/10/03 07:25:32;;;;;;;22.77;4.77;;;10.80;99.90;;;;;;4218314;28;20297;-78
2022/10/03 07:27:47;;;;;;;10.63;3.50;;;10.80;99.90;;;;;;4221445;28;20241;-79
2022/10/03 07:30:10;;;;;;;11.87;3.97;;;10.80;99.90;;;;;;4214950;28;20217;-79
2022/10/03 07:32:29;;;;;;;12.30;3.83;;;10.90;99.90;;;;;;4218927;28;20261;-79
2022/10/03 07:35:07;;;;;;;14.27;4.00;;;11.00;99.90;;;;;;4225763;28;20229;-81
2022/10/03 07:40:19;;;;;;;15.20;4.17;;;11.10;99.90;;;;;;4198044;28;20220;-79
2022/10/03 07:42:58;;;;;;;20.03;4.80;;;11.10;99.90;;;;;;4220964;28;20320;-79
2022/10/03 07:45:21;;;;;;;20.10;4.67;;;11.20;99.90;;;;;;4184521;28;20220;-80
2022/10/03 07:47:56;;;;;;;19.37;4.90;;;11.30;99.90;;;;;;4220484;28;20590;-79
2022/10/03 07:50:17;;;;;;;12.63;4.17;;;11.30;99.90;;;;;;4216671;28;20628;-80
2022/10/03 07:52:52;;;;;;;19.63;4.83;;;11.30;99.90;;;;;;4221910;28;20207;-79
2022/10/03 07:55:18;;;;;;;13.67;4.20;;;11.30;99.90;;;;;;4195093;28;20258;-79
2022/10/03 07:57:44;;;;;;;9.53;4.30;;;11.30;99.90;;;;;;4221659;28;20306;-78
2022/10/03 08:00:13;;;;;;;13.97;4.50;;;11.40;99.90;;;;;;4227332;27;20229;-78
2022/10/03 08:02:35;;;;;;;13.50;4.33;;;11.40;99.90;;;;;;4224003;28;20674;-79
2022/10/03 08:05:07;;;;;;;13.87;4.70;;;11.40;99.90;;;;;;4225969;27;20239;-79
2022/10/03 08:07:32;;;;;;;14.23;4.63;;;11.50;99.90;;;;;;4205950;28;20771;-79
2022/10/03 08:09:53;;;;;;;20.70;4.93;;;11.50;99.90;;;;;;4217462;28;20243;-78
2022/10/03 08:12:41;;;;;;;13.50;4.73;;;11.50;99.90;;;;;;4206218;28;20216;-78
2022/10/03 08:14:52;;;;;;;12.33;4.83;;;11.50;99.90;;;;;;4208329;28;20332;-78
2022/10/03 08:17:31;;;;;;;10.50;4.60;;;11.50;99.90;;;;;;4220925;28;20204;-78
2022/10/03 08:19:57;;;;;;;15.00;4.33;;;11.60;99.90;;;;;;4222013;28;20239;-78
2022/10/03 08:22:08;;;;;;;13.00;4.30;;;11.60;99.90;;;;;;4216972;28;20208;-78
2022/10/03 08:24:24;;;;;;;16.07;5.20;;;11.60;99.90;;;;;;4205744;28;20212;-78
2022/10/03 08:26:45;;;;;;;13.93;4.60;;;11.70;99.90;;;;;;4215030;28;20207;-77
2022/10/03 08:29:03;;;;;;;18.03;5.03;;;11.70;99.90;;;;;;4201509;28;20226;-77
2022/10/03 08:31:42;;;;;;;13.53;4.80;;;11.80;99.90;;;;;;4217940;28;20196;-78
2022/10/03 08:34:07;;;;;;;14.17;5.80;;;11.80;99.90;;;;;;4218628;28;20647;-78
2022/10/03 08:36:34;;;;;;;20.13;5.37;;;11.90;99.90;;;;;;4224628;28;20209;-77
2022/10/03 08:39:14;;;;;;;14.43;5.07;;;11.90;99.90;;;;;;4223646;28;20246;-77
2022/10/03 08:41:59;;;;;;;14.37;4.60;;;12.00;99.90;;;;;;4189297;28;20224;-79
2022/10/03 08:44:34;;;;;;;15.03;4.20;;;12.00;99.90;;;;;;4222745;28;20289;-78
2022/10/03 08:47:06;;;;;;;18.30;5.33;;;12.00;99.90;;;;;;4221370;28;20404;-79
2022/10/03 08:49:29;;;;;;;12.73;5.17;;;12.10;99.90;;;;;;4223933;28;20208;-79
2022/10/03 08:52:03;;;;;;;12.27;4.50;;;12.10;99.90;;;;;;4220485;28;20629;-78
2022/10/03 08:54:21;;;;;;;16.73;4.80;;;12.10;99.90;;;;;;4222438;28;20254;-78
2022/10/03 08:56:34;;;;;;;11.43;3.87;;;12.20;99.90;;;;;;4227304;28;20573;-77
2022/10/03 08:59:10;;;;;;;20.03;4.67;;;12.20;99.90;;;;;;4224088;28;20335;-79
2022/10/03 09:01:28;;;;;;;18.33;4.23;;;12.20;99.90;;;;;;4223760;28;20253;-78
2022/10/03 09:04:06;;;;;;;8.80;3.83;;;12.20;99.90;;;;;;4226348;28;20215;-77
2022/10/03 09:06:43;;;;;;;8.97;4.57;;;12.20;99.90;;;;;;4226216;28;20213;-79
2022/10/03 09:09:18;;;;;;;13.57;4.20;;;12.30;99.90;;;;;;4226277;28;20273;-77
2022/10/03 09:12:10;;;;;;;13.60;4.30;;;12.30;99.90;;;;;;4220253;28;20247;-77
2022/10/03 09:14:41;;;;;;;6.80;3.90;;;12.40;99.90;;;;;;4203300;28;20233;-77
2022/10/03 09:17:09;;;;;;;10.17;3.90;;;12.50;99.90;;;;;;4201498;28;20584;-76
2022/10/03 09:19:51;;;;;;;13.93;3.93;;;12.50;99.90;;;;;;4223655;28;20256;-77
2022/10/03 09:22:21;;;;;;;14.60;4.70;;;12.60;99.90;;;;;;4204940;28;20797;-77
2022/10/03 09:25:11;;;;;;;10.80;3.60;;;12.60;99.90;;;;;;4219892;28;20208;-77
2022/10/03 09:27:36;;;;;;;8.90;3.57;;;12.70;99.90;;;;;;4205156;28;20263;-75
2022/10/03 09:30:12;;;;;;;11.70;3.47;;;12.80;99.90;;;;;;4219395;28;20200;-75
2022/10/03 09:32:53;;;;;;;10.30;3.80;;;12.80;99.90;;;;;;4221595;28;20830;-75
2022/10/03 09:35:34;;;;;;;10.50;3.60;;;12.90;99.90;;;;;;4223742;28;20202;-75
2022/10/03 09:38:02;;;;;;;15.07;4.00;;;12.80;99.90;;;;;;4176356;28;20243;-76
2022/10/03 09:40:29;;;;;;;12.77;3.20;;;12.90;99.90;;;;;;4220064;28;20699;-78
2022/10/03 09:43:05;;;;;;;12.77;4.33;;;12.90;99.90;;;;;;4221576;28;20285;-75
2022/10/03 09:45:26;;;;;;;8.37;3.47;;;13.00;99.90;;;;;;4223205;28;20213;-75
2022/10/03 09:47:55;;;;;;;12.23;3.57;;;13.10;99.90;;;;;;4206396;28;20212;-76
2022/10/03 09:50:35;;;;;;;9.53;3.20;;;13.10;99.90;;;;;;4223432;28;20205;-75
2022/10/03 09:53:04;;;;;;;7.40;3.10;;;13.20;99.90;;;;;;4221749;28;20208;-74
2022/10/03 09:55:32;;;;;;;7.97;3.53;;;13.20;99.90;;;;;;4220379;28;20632;-76
2022/10/03 09:58:32;;;;;;;7.70;3.70;;;13.20;99.90;;;;;;4224827;28;20205;-75
2022/10/03 10:01:03;;;;;;;7.80;3.40;;;13.20;99.90;;;;;;4220537;28;20285;-78
2022/10/03 10:03:56;;;;;;;8.23;3.03;;;13.30;99.90;;;;;;4211780;28;20721;-77
2022/10/03 10:06:14;;;;;;;12.57;2.90;;;13.20;99.90;;;;;;4158372;28;20212;-76
2022/10/03 10:08:53;;;;;;;11.13;2.87;;;13.30;99.90;;;;;;4164343;28;20753;-76
2022/10/03 10:11:17;;;;;;;9.67;3.10;;;13.30;99.90;;;;;;4177255;28;20224;-76
2022/10/03 10:13:51;;;;;;;9.33;2.97;;;13.30;99.90;;;;;;4221615;28;20648;-77
2022/10/03 10:16:35;;;;;;;14.87;3.40;;;13.30;99.90;;;;;;4222479;28;20314;-76
2022/10/03 10:19:02;;;;;;;12.33;3.27;;;13.40;99.90;;;;;;4196250;28;20961;-77
2022/10/03 10:21:38;;;;;;;7.73;3.00;;;13.40;99.90;;;;;;4219627;28;20641;-75
2022/10/03 10:23:52;;;;;;;10.57;3.40;;;13.40;99.90;;;;;;4199649;28;20405;-77
2022/10/03 10:26:34;;;;;;;8.83;2.83;;;13.50;99.90;;;;;;4219781;28;20215;-77
2022/10/03 10:29:06;;;;;;;11.03;2.40;;;13.50;99.90;;;;;;4212008;28;20863;-77
2022/10/03 10:31:38;;;;;;;8.37;2.20;;;13.70;99.90;;;;;;4221157;28;20243;-77
2022/10/03 10:34:29;;;;;;;9.17;2.27;;;13.80;99.90;;;;;;4220568;28;20240;-77
2022/10/03 10:37:10;;;;;;;11.80;2.50;;;13.80;99.90;;;;;;4218654;28;20201;-76
2022/10/03 10:39:36;;;;;;;10.80;2.67;;;14.00;99.90;;;;;;4197726;28;21008;-77
2022/10/03 10:42:15;;;;;;;6.80;2.67;;;14.10;99.90;;;;;;4198933;28;20294;-76
2022/10/03 10:44:49;;;;;;;11.60;2.60;;;14.10;99.90;;;;;;4216665;28;20199;-76
2022/10/03 10:47:32;;;;;;;8.03;2.57;;;14.20;99.90;;;;;;4222045;28;20646;-77
2022/10/03 10:50:05;;;;;;;7.93;2.20;;;14.30;99.90;;;;;;4214105;28;20587;-77
2022/10/03 10:52:49;;;;;;;4.90;2.20;;;14.30;99.90;;;;;;4225389;28;20209;-79
2022/10/03 10:55:32;;;;;;;8.97;2.23;;;14.40;99.90;;;;;;4170013;28;20266;-77
2022/10/03 10:58:13;;;;;;;5.97;2.00;;;14.50;99.90;;;;;;4228883;28;20231;-76
2022/10/03 11:00:45;;;;;;;10.77;2.20;;;14.50;99.90;;;;;;4215895;28;20710;-76
2022/10/03 11:03:41;;;;;;;8.50;2.30;;;14.60;99.90;;;;;;4211256;28;20766;-77
2022/10/03 11:06:18;;;;;;;5.57;1.73;;;14.60;99.90;;;;;;4220498;28;20333;-76
2022/10/03 11:09:01;;;;;;;6.60;1.53;;;14.80;99.90;;;;;;4225018;28;20256;-76
2022/10/03 11:11:28;;;;;;;7.30;1.87;;;14.90;99.90;;;;;;4209995;28;20198;-76
2022/10/03 11:14:23;;;;;;;5.47;1.60;;;14.90;99.90;;;;;;4218028;28;20252;-76
2022/10/03 11:17:09;;;;;;;9.17;1.60;;;15.00;99.90;;;;;;4183150;28;20211;-76
2022/10/03 11:19:44;;;;;;;7.33;1.60;;;15.20;99.90;;;;;;4213092;28;20267;-77
2022/10/03 11:22:19;;;;;;;7.17;1.47;;;15.30;99.90;;;;;;4199640;28;20256;-77
2022/10/03 11:25:07;;;;;;;6.70;1.50;;;15.20;99.90;;;;;;4188029;28;20223;-77
2022/10/03 11:27:41;;;;;;;5.57;1.30;;;15.30;99.90;;;;;;4221469;28;20207;-76
2022/10/03 11:30:18;;;;;;;5.97;1.70;;;15.30;99.90;;;;;;4217906;28;20283;-76
2022/10/03 11:33:00;;;;;;;4.40;1.40;;;15.30;99.90;;;;;;4217307;28;20232;-76
2022/10/03 11:35:32;;;;;;;5.43;1.50;;;15.40;99.90;;;;;;4209568;28;20215;-77
2022/10/03 11:37:42;;;;;;;8.67;1.90;;;15.40;99.90;;;;;;4215405;28;20762;-77
2022/10/03 11:39:52;;;;;;;5.60;1.43;;;15.50;99.90;;;;;;4201246;28;20217;-76
2022/10/03 11:42:01;;;;;;;6.50;1.50;;;15.50;99.90;;;;;;4203025;28;20216;-76
2022/10/03 11:44:27;;;;;;;7.83;1.47;;;15.50;99.90;;;;;;4217211;28;20616;-76
2022/10/03 11:46:50;;;;;;;8.30;1.40;;;15.50;99.90;;;;;;4220530;28;20212;-76
2022/10/03 11:48:56;;;;;;;7.57;1.50;;;15.40;99.90;;;;;;4218805;28;20319;-75
2022/10/03 11:51:03;;;;;;;5.97;1.17;;;15.40;99.90;;;;;;4218246;28;20196;-77
2022/10/03 11:53:27;;;;;;;7.87;1.37;;;15.40;99.90;;;;;;4220526;28;20204;-76
2022/10/03 11:55:40;;;;;;;6.47;1.80;;;15.30;99.90;;;;;;4206518;28;20295;-76
2022/10/03 11:57:46;;;;;;;6.03;1.50;;;15.20;99.90;;;;;;4216316;28;20295;-76
2022/10/03 11:59:59;;;;;;;6.83;1.40;;;15.20;99.90;;;;;;4198294;28;21609;-77
2022/10/03 12:02:10;;;;;;;6.00;1.40;;;15.20;99.90;;;;;;4218826;28;20809;-77
2022/10/03 12:04:25;;;;;;;5.63;1.40;;;15.20;99.90;;;;;;4198269;28;20326;-75
2022/10/03 12:09:25;;;;;;;6.57;1.30;;;15.10;99.90;;;;;;4221850;28;20218;-77
2022/10/03 12:11:35;;;;;;;6.50;1.37;;;15.20;99.90;;;;;;4219056;28;20294;-78
2022/10/03 12:13:45;;;;;;;4.37;1.10;;;15.20;99.90;;;;;;4202968;28;20218;-78
2022/10/03 12:15:50;;;;;;;4.00;1.50;;;15.30;99.90;;;;;;4205005;28;20205;-78
2022/10/03 12:18:03;;;;;;;5.70;1.37;;;15.30;99.90;;;;;;4218637;28;20706;-77
2022/10/03 12:20:17;;;;;;;5.30;1.37;;;15.40;99.90;;;;;;4201521;28;20225;-77
2022/10/03 12:22:32;;;;;;;4.73;1.17;;;15.50;99.90;;;;;;4202545;28;20208;-76
2022/10/03 12:24:36;;;;;;;6.10;1.30;;;15.50;99.90;;;;;;4221119;28;20200;-76
2022/10/03 12:26:48;;;;;;;4.73;1.00;;;15.60;99.90;;;;;;4203316;28;20233;-76
2022/10/03 12:28:54;;;;;;;3.43;1.00;;;15.70;99.90;;;;;;4216578;28;20259;-76
2022/10/03 12:31:00;;;;;;;5.87;1.17;;;15.70;99.90;;;;;;4218032;28;20209;-76
2022/10/03 12:33:17;;;;;;;4.90;1.13;;;15.80;99.90;;;;;;4219102;28;20216;-76
2022/10/03 12:35:36;;;;;;;7.20;1.37;;;15.80;99.90;;;;;;4218830;28;20204;-77
2022/10/03 12:38:05;;;;;;;4.73;1.17;;;15.80;99.90;;;;;;4196784;28;20695;-77
2022/10/03 12:40:15;;;;;;;9.73;1.37;;;15.90;99.90;;;;;;4220329;28;20655;-77
2022/10/03 12:42:28;;;;;;;5.10;1.40;;;15.90;99.90;;;;;;4215179;28;20266;-76
2022/10/03 12:44:45;;;;;;;7.20;1.10;;;15.80;99.90;;;;;;4217338;28;20212;-75